Cimpina, Romania

12:47 AM EEST on September 24, 2014 (GMT +0300)
Livadea | Change Station
CLOSE
Current Station
Personal Weather Station
Location: Varbilau, PRAHOVA
Elevation: 1280 ft
Nearby Weather Stations

Elev 1280 ft 45.19 °N, 25.91 °E | Updated 22 seconds ago

Clear
Clear
52.5 °F
Feels Like 52.5 °F
N
0.9
Wind Variable Wind from SE
Gusts 5.0 mph

Today
High -- | Low -- °F
--% Chance of Precip.
Yesterday
High -- | Low -- °F
Precip. -- in
7:06 AM 7:11 PM
Waning Crescent, 0% visible
Pressure 29.92 in
Visibility -9999.0 miles
Clouds
Dew Point 42 °F
Humidity 67%
Rainfall 0.00 in
Snow Depth Not available.
UV Not available.
Pollen Not available.
Air Quality Not available.
Flu Activity Not available.
METAR LROP 232130Z 24007KT CAVOK 09/08 Q1013 RMK R88/09//95 NOSIG

More Conditions Fewer Conditions

Pressure 29.92 in
Visibility -9999.0 miles
Clouds
Dew Point 42 °F
Humidity 67%
Rainfall 0.00 in
Snow Depth Not available.
UV Not available.
Pollen Not available.
Air Quality Not available.
Flu Activity Not available.
METAR LROP 232130Z 24007KT CAVOK 09/08 Q1013 RMK R88/09//95 NOSIG

More Conditions Fewer Conditions

10-Day Weather Forecast

Almanac

Astronomy

Sep. 24, 2014 Rise Set
Actual Time 7:06 AM EEST 7:11 PM EEST
Civil Twilight 6:36 AM EEST 7:40 PM EEST
Nautical Twilight 6:02 AM EEST 8:15 PM EEST
Astronomical Twilight 5:26 AM EEST 8:50 PM EEST
Moon 7:09 AM EEST (9/24) 7:09 PM EEST (9/24)
Length of Visible Light 13h 03m
Length of Day
12h 05m
Tomorrow will be 3m 8s shorter.
Waning Crescent, 0% of the Moon is Illuminated
Sep 23
Waning Crescent
Sep 24
New
Oct 1
First Quarter
Oct 8
Full
Oct 15
Last Quarter

Yesterday's Extremes

Country Highs Country Lows

Community

WunderPhotos

Upload Photos

1,755,794 photos uploaded!

WunderBlogs® & News

By Dr. Jeff Masters
Director of Meteorology, Weather Underground
By Kari Strenfel
Meteorologist, Weather Underground
By Christopher C. Burt
Weather Historian, Weather Underground
September 23, 2014
September 23, 2014
September 23, 2014

Nearby

Snow Depth

Not available.

Earthquake Activity

City Distance Mag. Time & Date
No recent earthquake activity has been reported nearby.
Minimum magnitude displayed is 2.5.

Coastal Water Temperatures

Place Temperature
No Stations Reporting

Nearby Weather Stations